sensor_id;sensor_type;location;lat;lon;timestamp;P1;durP1;ratioP1;P2;durP2;ratioP2
3068;SDS011;1545;51.728;8.796;2024-02-26T00:00:14;5.63;;;3.43;;
3068;SDS011;1545;51.728;8.796;2024-02-26T00:02:40;5.13;;;3.63;;
3068;SDS011;1545;51.728;8.796;2024-02-26T00:05:06;7.93;;;3.50;;
3068;SDS011;1545;51.728;8.796;2024-02-26T00:07:33;7.63;;;3.10;;
3068;SDS011;1545;51.728;8.796;2024-02-26T00:09:59;5.47;;;3.30;;
3068;SDS011;1545;51.728;8.796;2024-02-26T00:12:24;4.67;;;3.40;;
3068;SDS011;1545;51.728;8.796;2024-02-26T00:14:50;5.53;;;3.63;;
3068;SDS011;1545;51.728;8.796;2024-02-26T00:17:15;6.20;;;3.07;;
3068;SDS011;1545;51.728;8.796;2024-02-26T00:19:41;8.63;;;3.40;;
3068;SDS011;1545;51.728;8.796;2024-02-26T00:22:06;6.60;;;3.17;;
3068;SDS011;1545;51.728;8.796;2024-02-26T00:24:32;6.90;;;3.70;;
3068;SDS011;1545;51.728;8.796;2024-02-26T00:26:59;6.03;;;3.30;;
3068;SDS011;1545;51.728;8.796;2024-02-26T00:29:24;9.53;;;3.40;;
3068;SDS011;1545;51.728;8.796;2024-02-26T00:31:50;6.37;;;3.70;;
3068;SDS011;1545;51.728;8.796;2024-02-26T00:34:16;5.10;;;3.47;;
3068;SDS011;1545;51.728;8.796;2024-02-26T00:36:41;5.13;;;3.07;;
3068;SDS011;1545;51.728;8.796;2024-02-26T00:39:07;7.77;;;3.60;;
3068;SDS011;1545;51.728;8.796;2024-02-26T00:41:33;7.03;;;3.80;;
3068;SDS011;1545;51.728;8.796;2024-02-26T00:43:58;5.37;;;3.50;;
3068;SDS011;1545;51.728;8.796;2024-02-26T00:46:24;6.07;;;3.40;;
3068;SDS011;1545;51.728;8.796;2024-02-26T00:48:50;4.97;;;3.53;;
3068;SDS011;1545;51.728;8.796;2024-02-26T00:51:15;5.80;;;3.30;;
3068;SDS011;1545;51.728;8.796;2024-02-26T00:53:40;7.67;;;3.37;;
3068;SDS011;1545;51.728;8.796;2024-02-26T00:56:06;6.90;;;3.77;;
3068;SDS011;1545;51.728;8.796;2024-02-26T00:58:31;5.83;;;3.40;;
3068;SDS011;1545;51.728;8.796;2024-02-26T01:00:57;7.80;;;3.77;;
3068;SDS011;1545;51.728;8.796;2024-02-26T01:03:23;5.57;;;3.67;;
3068;SDS011;1545;51.728;8.796;2024-02-26T01:05:48;5.80;;;3.90;;
3068;SDS011;1545;51.728;8.796;2024-02-26T01:08:14;8.97;;;3.73;;
3068;SDS011;1545;51.728;8.796;2024-02-26T01:10:39;15.20;;;3.50;;
3068;SDS011;1545;51.728;8.796;2024-02-26T01:13:04;5.47;;;3.33;;
3068;SDS011;1545;51.728;8.796;2024-02-26T01:15:30;7.37;;;3.37;;
3068;SDS011;1545;51.728;8.796;2024-02-26T01:17:55;7.33;;;3.03;;
3068;SDS011;1545;51.728;8.796;2024-02-26T01:20:21;6.10;;;3.20;;
3068;SDS011;1545;51.728;8.796;2024-02-26T01:22:46;5.03;;;2.87;;
3068;SDS011;1545;51.728;8.796;2024-02-26T01:25:12;5.20;;;3.03;;
3068;SDS011;1545;51.728;8.796;2024-02-26T01:27:38;6.97;;;2.80;;
3068;SDS011;1545;51.728;8.796;2024-02-26T01:30:06;4.10;;;2.67;;
3068;SDS011;1545;51.728;8.796;2024-02-26T01:32:32;3.30;;;2.67;;
3068;SDS011;1545;51.728;8.796;2024-02-26T01:34:57;5.90;;;2.50;;
3068;SDS011;1545;51.728;8.796;2024-02-26T01:37:23;4.50;;;2.87;;
3068;SDS011;1545;51.728;8.796;2024-02-26T01:39:48;3.10;;;2.30;;
3068;SDS011;1545;51.728;8.796;2024-02-26T01:42:14;6.33;;;2.20;;
3068;SDS011;1545;51.728;8.796;2024-02-26T01:44:39;6.97;;;2.50;;
3068;SDS011;1545;51.728;8.796;2024-02-26T01:47:05;5.87;;;2.30;;
3068;SDS011;1545;51.728;8.796;2024-02-26T01:49:34;5.43;;;2.27;;
3068;SDS011;1545;51.728;8.796;2024-02-26T01:52:01;5.47;;;2.40;;
3068;SDS011;1545;51.728;8.796;2024-02-26T01:54:29;4.03;;;2.53;;
3068;SDS011;1545;51.728;8.796;2024-02-26T01:56:55;5.80;;;2.40;;
3068;SDS011;1545;51.728;8.796;2024-02-26T01:59:21;3.33;;;2.43;;
3068;SDS011;1545;51.728;8.796;2024-02-26T02:01:48;4.13;;;2.30;;
3068;SDS011;1545;51.728;8.796;2024-02-26T02:04:19;3.33;;;2.20;;
3068;SDS011;1545;51.728;8.796;2024-02-26T02:06:45;3.20;;;2.30;;
3068;SDS011;1545;51.728;8.796;2024-02-26T02:09:11;3.67;;;2.40;;
3068;SDS011;1545;51.728;8.796;2024-02-26T02:11:36;4.40;;;2.40;;
3068;SDS011;1545;51.728;8.796;2024-02-26T02:14:02;4.20;;;2.37;;
3068;SDS011;1545;51.728;8.796;2024-02-26T02:16:28;6.07;;;2.40;;
3068;SDS011;1545;51.728;8.796;2024-02-26T02:18:54;3.20;;;2.20;;
3068;SDS011;1545;51.728;8.796;2024-02-26T02:21:19;3.00;;;2.03;;
3068;SDS011;1545;51.728;8.796;2024-02-26T02:23:45;3.43;;;2.10;;
3068;SDS011;1545;51.728;8.796;2024-02-26T02:26:11;3.63;;;2.30;;
3068;SDS011;1545;51.728;8.796;2024-02-26T02:28:38;5.23;;;2.43;;
3068;SDS011;1545;51.728;8.796;2024-02-26T02:31:05;3.77;;;2.33;;
3068;SDS011;1545;51.728;8.796;2024-02-26T02:33:31;3.00;;;2.07;;
3068;SDS011;1545;51.728;8.796;2024-02-26T02:35:59;2.70;;;1.90;;
3068;SDS011;1545;51.728;8.796;2024-02-26T02:38:25;4.43;;;2.10;;
3068;SDS011;1545;51.728;8.796;2024-02-26T02:40:51;2.27;;;2.00;;
3068;SDS011;1545;51.728;8.796;2024-02-26T02:43:17;2.67;;;2.10;;
3068;SDS011;1545;51.728;8.796;2024-02-26T02:45:43;6.37;;;2.40;;
3068;SDS011;1545;51.728;8.796;2024-02-26T02:48:08;2.67;;;2.10;;
3068;SDS011;1545;51.728;8.796;2024-02-26T02:50:35;3.73;;;2.37;;
3068;SDS011;1545;51.728;8.796;2024-02-26T02:53:01;7.63;;;2.33;;
3068;SDS011;1545;51.728;8.796;2024-02-26T02:55:27;7.10;;;2.60;;
3068;SDS011;1545;51.728;8.796;2024-02-26T02:57:52;3.30;;;2.20;;
3068;SDS011;1545;51.728;8.796;2024-02-26T03:00:18;6.67;;;2.77;;
3068;SDS011;1545;51.728;8.796;2024-02-26T03:02:44;5.37;;;2.77;;
3068;SDS011;1545;51.728;8.796;2024-02-26T03:05:10;4.13;;;2.50;;
3068;SDS011;1545;51.728;8.796;2024-02-26T03:07:35;4.43;;;2.60;;
3068;SDS011;1545;51.728;8.796;2024-02-26T03:10:01;3.67;;;2.27;;
3068;SDS011;1545;51.728;8.796;2024-02-26T03:12:26;8.13;;;2.50;;
3068;SDS011;1545;51.728;8.796;2024-02-26T03:14:52;3.40;;;2.37;;
3068;SDS011;1545;51.728;8.796;2024-02-26T03:17:19;6.00;;;2.77;;
3068;SDS011;1545;51.728;8.796;2024-02-26T03:19:45;6.80;;;2.40;;
3068;SDS011;1545;51.728;8.796;2024-02-26T03:22:12;3.83;;;2.50;;
3068;SDS011;1545;51.728;8.796;2024-02-26T03:24:37;4.03;;;2.23;;
3068;SDS011;1545;51.728;8.796;2024-02-26T03:27:03;3.57;;;2.60;;
3068;SDS011;1545;51.728;8.796;2024-02-26T03:29:34;3.80;;;2.60;;
3068;SDS011;1545;51.728;8.796;2024-02-26T03:32:02;3.63;;;2.37;;
3068;SDS011;1545;51.728;8.796;2024-02-26T03:34:28;3.70;;;2.47;;
3068;SDS011;1545;51.728;8.796;2024-02-26T03:36:55;3.93;;;2.47;;
3068;SDS011;1545;51.728;8.796;2024-02-26T03:39:21;4.00;;;2.47;;
3068;SDS011;1545;51.728;8.796;2024-02-26T03:41:47;10.80;;;2.63;;
3068;SDS011;1545;51.728;8.796;2024-02-26T03:44:13;3.97;;;2.67;;
3068;SDS011;1545;51.728;8.796;2024-02-26T03:46:38;4.40;;;2.63;;
3068;SDS011;1545;51.728;8.796;2024-02-26T03:49:04;5.57;;;2.50;;
3068;SDS011;1545;51.728;8.796;2024-02-26T03:51:29;3.73;;;2.60;;
3068;SDS011;1545;51.728;8.796;2024-02-26T03:53:56;3.83;;;2.60;;
3068;SDS011;1545;51.728;8.796;2024-02-26T03:56:23;4.70;;;2.80;;
3068;SDS011;1545;51.728;8.796;2024-02-26T03:58:49;4.40;;;2.57;;
3068;SDS011;1545;51.728;8.796;2024-02-26T04:01:14;3.70;;;2.50;;
3068;SDS011;1545;51.728;8.796;2024-02-26T04:03:40;4.80;;;2.50;;
3068;SDS011;1545;51.728;8.796;2024-02-26T04:06:08;4.43;;;2.80;;
3068;SDS011;1545;51.728;8.796;2024-02-26T04:08:35;3.47;;;2.33;;
3068;SDS011;1545;51.728;8.796;2024-02-26T04:11:00;5.87;;;2.60;;
3068;SDS011;1545;51.728;8.796;2024-02-26T04:13:25;3.67;;;2.57;;
3068;SDS011;1545;51.728;8.796;2024-02-26T04:15:51;3.70;;;2.40;;
3068;SDS011;1545;51.728;8.796;2024-02-26T04:18:16;4.60;;;2.70;;
3068;SDS011;1545;51.728;8.796;2024-02-26T04:20:42;5.80;;;2.93;;
3068;SDS011;1545;51.728;8.796;2024-02-26T04:23:07;4.53;;;3.00;;
3068;SDS011;1545;51.728;8.796;2024-02-26T04:25:33;6.50;;;3.00;;
3068;SDS011;1545;51.728;8.796;2024-02-26T04:27:58;6.23;;;2.93;;
3068;SDS011;1545;51.728;8.796;2024-02-26T04:30:24;5.40;;;3.30;;
3068;SDS011;1545;51.728;8.796;2024-02-26T04:32:49;5.37;;;3.37;;
3068;SDS011;1545;51.728;8.796;2024-02-26T04:35:15;4.00;;;2.70;;
3068;SDS011;1545;51.728;8.796;2024-02-26T04:37:40;6.10;;;3.37;;
3068;SDS011;1545;51.728;8.796;2024-02-26T04:40:06;4.70;;;3.10;;
3068;SDS011;1545;51.728;8.796;2024-02-26T04:42:33;5.83;;;3.40;;
3068;SDS011;1545;51.728;8.796;2024-02-26T04:44:58;6.57;;;3.20;;
3068;SDS011;1545;51.728;8.796;2024-02-26T04:47:23;6.83;;;3.50;;
3068;SDS011;1545;51.728;8.796;2024-02-26T04:49:49;5.50;;;3.50;;
3068;SDS011;1545;51.728;8.796;2024-02-26T04:52:15;7.53;;;3.87;;
3068;SDS011;1545;51.728;8.796;2024-02-26T04:54:41;8.80;;;3.67;;
3068;SDS011;1545;51.728;8.796;2024-02-26T04:57:06;6.37;;;3.63;;
3068;SDS011;1545;51.728;8.796;2024-02-26T04:59:32;6.67;;;3.43;;
3068;SDS011;1545;51.728;8.796;2024-02-26T05:01:57;6.27;;;3.70;;
3068;SDS011;1545;51.728;8.796;2024-02-26T05:04:23;7.00;;;3.97;;
3068;SDS011;1545;51.728;8.796;2024-02-26T05:06:48;7.03;;;3.93;;
3068;SDS011;1545;51.728;8.796;2024-02-26T05:09:14;5.53;;;3.70;;
3068;SDS011;1545;51.728;8.796;2024-02-26T05:11:39;7.63;;;4.20;;
3068;SDS011;1545;51.728;8.796;2024-02-26T05:14:05;6.90;;;3.97;;
3068;SDS011;1545;51.728;8.796;2024-02-26T05:16:31;7.33;;;4.27;;
3068;SDS011;1545;51.728;8.796;2024-02-26T05:18:56;5.80;;;3.50;;
3068;SDS011;1545;51.728;8.796;2024-02-26T05:21:22;5.60;;;3.63;;
3068;SDS011;1545;51.728;8.796;2024-02-26T05:23:48;5.20;;;3.60;;
3068;SDS011;1545;51.728;8.796;2024-02-26T05:26:19;6.83;;;3.60;;
3068;SDS011;1545;51.728;8.796;2024-02-26T05:28:45;6.67;;;3.60;;
3068;SDS011;1545;51.728;8.796;2024-02-26T05:31:12;6.10;;;4.10;;
3068;SDS011;1545;51.728;8.796;2024-02-26T05:33:38;9.67;;;4.30;;
3068;SDS011;1545;51.728;8.796;2024-02-26T05:36:04;8.43;;;4.00;;
3068;SDS011;1545;51.728;8.796;2024-02-26T05:38:30;5.53;;;3.73;;
3068;SDS011;1545;51.728;8.796;2024-02-26T05:40:56;4.00;;;3.10;;
3068;SDS011;1545;51.728;8.796;2024-02-26T05:43:23;6.33;;;3.33;;
3068;SDS011;1545;51.728;8.796;2024-02-26T05:45:48;4.00;;;2.93;;
3068;SDS011;1545;51.728;8.796;2024-02-26T05:48:14;6.97;;;3.57;;
3068;SDS011;1545;51.728;8.796;2024-02-26T05:50:39;5.10;;;3.10;;
3068;SDS011;1545;51.728;8.796;2024-02-26T05:53:04;4.23;;;3.10;;
3068;SDS011;1545;51.728;8.796;2024-02-26T05:55:30;6.73;;;3.43;;
3068;SDS011;1545;51.728;8.796;2024-02-26T05:57:55;5.27;;;3.13;;
3068;SDS011;1545;51.728;8.796;2024-02-26T06:00:21;4.77;;;3.30;;
3068;SDS011;1545;51.728;8.796;2024-02-26T06:02:46;6.13;;;3.50;;
3068;SDS011;1545;51.728;8.796;2024-02-26T06:05:12;10.40;;;3.90;;
3068;SDS011;1545;51.728;8.796;2024-02-26T06:07:37;6.67;;;3.87;;
3068;SDS011;1545;51.728;8.796;2024-02-26T06:10:03;5.03;;;3.20;;
3068;SDS011;1545;51.728;8.796;2024-02-26T06:12:29;6.90;;;3.80;;
3068;SDS011;1545;51.728;8.796;2024-02-26T06:14:55;5.10;;;3.40;;
3068;SDS011;1545;51.728;8.796;2024-02-26T06:17:21;7.10;;;3.90;;
3068;SDS011;1545;51.728;8.796;2024-02-26T06:19:47;6.37;;;3.30;;
3068;SDS011;1545;51.728;8.796;2024-02-26T06:22:12;7.57;;;3.60;;
3068;SDS011;1545;51.728;8.796;2024-02-26T06:24:37;6.67;;;3.50;;
3068;SDS011;1545;51.728;8.796;2024-02-26T06:27:04;5.03;;;3.20;;
3068;SDS011;1545;51.728;8.796;2024-02-26T06:29:30;7.53;;;3.10;;
3068;SDS011;1545;51.728;8.796;2024-02-26T06:31:55;5.03;;;3.53;;
3068;SDS011;1545;51.728;8.796;2024-02-26T06:34:21;6.37;;;3.60;;
3068;SDS011;1545;51.728;8.796;2024-02-26T06:36:46;6.60;;;3.13;;
3068;SDS011;1545;51.728;8.796;2024-02-26T06:39:12;7.27;;;2.90;;
3068;SDS011;1545;51.728;8.796;2024-02-26T06:41:37;5.20;;;3.40;;
3068;SDS011;1545;51.728;8.796;2024-02-26T06:44:04;3.83;;;2.73;;
3068;SDS011;1545;51.728;8.796;2024-02-26T06:46:30;6.73;;;3.30;;
3068;SDS011;1545;51.728;8.796;2024-02-26T06:48:55;9.50;;;3.40;;
3068;SDS011;1545;51.728;8.796;2024-02-26T06:51:21;4.43;;;3.10;;
3068;SDS011;1545;51.728;8.796;2024-02-26T06:53:47;7.97;;;3.43;;
3068;SDS011;1545;51.728;8.796;2024-02-26T06:56:13;6.93;;;2.90;;
3068;SDS011;1545;51.728;8.796;2024-02-26T06:58:39;5.73;;;3.40;;
3068;SDS011;1545;51.728;8.796;2024-02-26T07:01:04;5.27;;;3.43;;
3068;SDS011;1545;51.728;8.796;2024-02-26T07:03:30;5.27;;;3.43;;
3068;SDS011;1545;51.728;8.796;2024-02-26T07:05:55;6.17;;;3.70;;
3068;SDS011;1545;51.728;8.796;2024-02-26T07:08:21;7.50;;;4.20;;
3068;SDS011;1545;51.728;8.796;2024-02-26T07:10:47;8.57;;;4.10;;
3068;SDS011;1545;51.728;8.796;2024-02-26T07:13:13;7.60;;;4.10;;
3068;SDS011;1545;51.728;8.796;2024-02-26T07:15:38;5.80;;;3.87;;
3068;SDS011;1545;51.728;8.796;2024-02-26T07:18:04;5.07;;;3.60;;
3068;SDS011;1545;51.728;8.796;2024-02-26T07:20:29;7.77;;;4.10;;
3068;SDS011;1545;51.728;8.796;2024-02-26T07:22:55;10.93;;;4.47;;
3068;SDS011;1545;51.728;8.796;2024-02-26T07:25:22;8.37;;;3.80;;
3068;SDS011;1545;51.728;8.796;2024-02-26T07:27:48;6.23;;;3.80;;
3068;SDS011;1545;51.728;8.796;2024-02-26T07:30:13;6.67;;;4.00;;
3068;SDS011;1545;51.728;8.796;2024-02-26T07:32:40;6.77;;;3.80;;
3068;SDS011;1545;51.728;8.796;2024-02-26T07:35:05;6.40;;;4.30;;
3068;SDS011;1545;51.728;8.796;2024-02-26T07:37:31;8.33;;;4.27;;
3068;SDS011;1545;51.728;8.796;2024-02-26T07:39:56;9.60;;;4.23;;
3068;SDS011;1545;51.728;8.796;2024-02-26T07:42:22;11.40;;;4.17;;
3068;SDS011;1545;51.728;8.796;2024-02-26T07:44:47;6.87;;;4.33;;
3068;SDS011;1545;51.728;8.796;2024-02-26T07:47:13;6.90;;;4.27;;
3068;SDS011;1545;51.728;8.796;2024-02-26T07:49:39;10.17;;;4.40;;
3068;SDS011;1545;51.728;8.796;2024-02-26T07:52:05;9.83;;;4.00;;
3068;SDS011;1545;51.728;8.796;2024-02-26T07:54:31;9.57;;;4.00;;
3068;SDS011;1545;51.728;8.796;2024-02-26T07:56:56;8.97;;;4.53;;
3068;SDS011;1545;51.728;8.796;2024-02-26T07:59:22;7.13;;;4.43;;
3068;SDS011;1545;51.728;8.796;2024-02-26T08:01:51;7.43;;;4.50;;
3068;SDS011;1545;51.728;8.796;2024-02-26T08:04:16;11.73;;;4.80;;
3068;SDS011;1545;51.728;8.796;2024-02-26T08:06:42;8.83;;;4.50;;
3068;SDS011;1545;51.728;8.796;2024-02-26T08:09:08;7.70;;;4.73;;
3068;SDS011;1545;51.728;8.796;2024-02-26T08:11:33;11.60;;;5.17;;
3068;SDS011;1545;51.728;8.796;2024-02-26T08:13:59;6.87;;;4.83;;
3068;SDS011;1545;51.728;8.796;2024-02-26T08:16:24;8.57;;;4.93;;
3068;SDS011;1545;51.728;8.796;2024-02-26T08:18:50;8.37;;;5.07;;
3068;SDS011;1545;51.728;8.796;2024-02-26T08:21:15;7.53;;;4.80;;
3068;SDS011;1545;51.728;8.796;2024-02-26T08:23:42;7.77;;;5.00;;
3068;SDS011;1545;51.728;8.796;2024-02-26T08:26:08;10.93;;;5.03;;
3068;SDS011;1545;51.728;8.796;2024-02-26T08:28:36;8.97;;;5.37;;
3068;SDS011;1545;51.728;8.796;2024-02-26T08:31:02;8.20;;;5.00;;
3068;SDS011;1545;51.728;8.796;2024-02-26T08:33:28;9.23;;;5.00;;
3068;SDS011;1545;51.728;8.796;2024-02-26T08:35:53;12.33;;;4.90;;
3068;SDS011;1545;51.728;8.796;2024-02-26T08:38:19;9.17;;;5.20;;
3068;SDS011;1545;51.728;8.796;2024-02-26T08:40:45;8.33;;;4.73;;
3068;SDS011;1545;51.728;8.796;2024-02-26T08:43:10;10.70;;;5.40;;
3068;SDS011;1545;51.728;8.796;2024-02-26T08:45:35;8.97;;;5.47;;
3068;SDS011;1545;51.728;8.796;2024-02-26T08:48:02;11.47;;;5.57;;
3068;SDS011;1545;51.728;8.796;2024-02-26T08:50:27;11.37;;;4.80;;
3068;SDS011;1545;51.728;8.796;2024-02-26T08:52:53;10.43;;;5.60;;
3068;SDS011;1545;51.728;8.796;2024-02-26T08:55:18;11.57;;;6.23;;
3068;SDS011;1545;51.728;8.796;2024-02-26T08:57:44;9.93;;;5.40;;
3068;SDS011;1545;51.728;8.796;2024-02-26T09:00:10;10.50;;;5.30;;
3068;SDS011;1545;51.728;8.796;2024-02-26T09:02:36;8.57;;;5.20;;
3068;SDS011;1545;51.728;8.796;2024-02-26T09:05:03;8.70;;;5.17;;
3068;SDS011;1545;51.728;8.796;2024-02-26T09:07:30;9.40;;;5.90;;
3068;SDS011;1545;51.728;8.796;2024-02-26T09:09:56;9.70;;;5.97;;
3068;SDS011;1545;51.728;8.796;2024-02-26T09:12:21;10.07;;;5.87;;
3068;SDS011;1545;51.728;8.796;2024-02-26T09:14:47;9.83;;;5.70;;
3068;SDS011;1545;51.728;8.796;2024-02-26T09:17:13;11.77;;;5.50;;
3068;SDS011;1545;51.728;8.796;2024-02-26T09:19:38;9.13;;;5.90;;
3068;SDS011;1545;51.728;8.796;2024-02-26T09:22:04;8.80;;;5.57;;
3068;SDS011;1545;51.728;8.796;2024-02-26T09:24:29;9.10;;;5.63;;
3068;SDS011;1545;51.728;8.796;2024-02-26T09:26:55;12.20;;;5.30;;
3068;SDS011;1545;51.728;8.796;2024-02-26T09:29:21;13.00;;;5.90;;
3068;SDS011;1545;51.728;8.796;2024-02-26T09:31:46;8.80;;;5.47;;
3068;SDS011;1545;51.728;8.796;2024-02-26T09:34:12;8.17;;;5.07;;
3068;SDS011;1545;51.728;8.796;2024-02-26T09:36:38;6.90;;;4.40;;
3068;SDS011;1545;51.728;8.796;2024-02-26T09:39:03;8.90;;;4.70;;
3068;SDS011;1545;51.728;8.796;2024-02-26T09:41:30;8.73;;;4.70;;
3068;SDS011;1545;51.728;8.796;2024-02-26T09:43:57;7.30;;;4.80;;
3068;SDS011;1545;51.728;8.796;2024-02-26T09:46:25;14.40;;;5.13;;
3068;SDS011;1545;51.728;8.796;2024-02-26T09:48:51;8.23;;;4.77;;
3068;SDS011;1545;51.728;8.796;2024-02-26T09:51:17;13.77;;;5.47;;
3068;SDS011;1545;51.728;8.796;2024-02-26T09:53:44;8.13;;;5.27;;
3068;SDS011;1545;51.728;8.796;2024-02-26T09:56:11;8.70;;;4.63;;
3068;SDS011;1545;51.728;8.796;2024-02-26T09:58:38;7.67;;;5.03;;
3068;SDS011;1545;51.728;8.796;2024-02-26T10:01:07;12.03;;;5.20;;
3068;SDS011;1545;51.728;8.796;2024-02-26T10:03:38;8.57;;;4.83;;
3068;SDS011;1545;51.728;8.796;2024-02-26T10:06:09;11.63;;;5.37;;
3068;SDS011;1545;51.728;8.796;2024-02-26T10:08:35;7.83;;;4.57;;
3068;SDS011;1545;51.728;8.796;2024-02-26T10:11:02;9.40;;;5.57;;
3068;SDS011;1545;51.728;8.796;2024-02-26T10:13:28;11.23;;;5.80;;
3068;SDS011;1545;51.728;8.796;2024-02-26T10:15:53;13.53;;;5.53;;
3068;SDS011;1545;51.728;8.796;2024-02-26T10:18:19;11.83;;;5.80;;
3068;SDS011;1545;51.728;8.796;2024-02-26T10:21:00;11.50;;;6.50;;
3068;SDS011;1545;51.728;8.796;2024-02-26T10:23:26;10.93;;;6.27;;
3068;SDS011;1545;51.728;8.796;2024-02-26T10:25:52;22.87;;;6.83;;
3068;SDS011;1545;51.728;8.796;2024-02-26T10:28:19;16.80;;;6.80;;
3068;SDS011;1545;51.728;8.796;2024-02-26T10:30:45;10.43;;;6.07;;
3068;SDS011;1545;51.728;8.796;2024-02-26T10:33:11;13.60;;;7.40;;
3068;SDS011;1545;51.728;8.796;2024-02-26T10:35:38;17.27;;;7.43;;
3068;SDS011;1545;51.728;8.796;2024-02-26T10:38:05;11.53;;;6.90;;
3068;SDS011;1545;51.728;8.796;2024-02-26T10:40:32;15.60;;;7.37;;
3068;SDS011;1545;51.728;8.796;2024-02-26T10:42:57;12.73;;;6.67;;
3068;SDS011;1545;51.728;8.796;2024-02-26T10:45:23;12.43;;;7.30;;
3068;SDS011;1545;51.728;8.796;2024-02-26T10:47:48;13.47;;;7.00;;
3068;SDS011;1545;51.728;8.796;2024-02-26T10:50:15;17.93;;;7.40;;
3068;SDS011;1545;51.728;8.796;2024-02-26T10:52:41;14.00;;;7.97;;
3068;SDS011;1545;51.728;8.796;2024-02-26T10:55:07;15.30;;;7.47;;
3068;SDS011;1545;51.728;8.796;2024-02-26T10:57:39;27.17;;;8.17;;
3068;SDS011;1545;51.728;8.796;2024-02-26T11:00:05;11.57;;;7.40;;
3068;SDS011;1545;51.728;8.796;2024-02-26T11:02:33;16.30;;;7.83;;
3068;SDS011;1545;51.728;8.796;2024-02-26T11:05:02;16.60;;;8.00;;
3068;SDS011;1545;51.728;8.796;2024-02-26T11:07:31;15.40;;;8.00;;
3068;SDS011;1545;51.728;8.796;2024-02-26T11:09:59;21.90;;;9.20;;
3068;SDS011;1545;51.728;8.796;2024-02-26T11:12:25;19.67;;;9.20;;
3068;SDS011;1545;51.728;8.796;2024-02-26T11:14:53;20.70;;;9.17;;
3068;SDS011;1545;51.728;8.796;2024-02-26T11:17:21;15.17;;;8.90;;
3068;SDS011;1545;51.728;8.796;2024-02-26T11:19:48;34.57;;;9.93;;
3068;SDS011;1545;51.728;8.796;2024-02-26T11:22:15;18.23;;;9.57;;
3068;SDS011;1545;51.728;8.796;2024-02-26T11:24:40;16.70;;;8.63;;
3068;SDS011;1545;51.728;8.796;2024-02-26T11:27:07;16.10;;;9.07;;
3068;SDS011;1545;51.728;8.796;2024-02-26T11:30:09;16.30;;;9.13;;
3068;SDS011;1545;51.728;8.796;2024-02-26T11:32:30;15.63;;;9.03;;
3068;SDS011;1545;51.728;8.796;2024-02-26T11:34:56;17.70;;;9.17;;
3068;SDS011;1545;51.728;8.796;2024-02-26T11:37:25;16.33;;;8.70;;
3068;SDS011;1545;51.728;8.796;2024-02-26T11:39:51;18.83;;;9.00;;
3068;SDS011;1545;51.728;8.796;2024-02-26T11:42:17;19.93;;;9.30;;
3068;SDS011;1545;51.728;8.796;2024-02-26T11:44:48;15.37;;;8.87;;
3068;SDS011;1545;51.728;8.796;2024-02-26T11:47:21;30.30;;;9.70;;
3068;SDS011;1545;51.728;8.796;2024-02-26T11:49:48;17.70;;;9.73;;
3068;SDS011;1545;51.728;8.796;2024-02-26T11:52:14;15.43;;;9.07;;
3068;SDS011;1545;51.728;8.796;2024-02-26T11:54:44;19.30;;;9.20;;
3068;SDS011;1545;51.728;8.796;2024-02-26T11:57:20;17.53;;;9.73;;
3068;SDS011;1545;51.728;8.796;2024-02-26T11:59:46;16.70;;;9.63;;
3068;SDS011;1545;51.728;8.796;2024-02-26T12:02:36;17.77;;;9.90;;
3068;SDS011;1545;51.728;8.796;2024-02-26T12:05:12;16.37;;;10.10;;
3068;SDS011;1545;51.728;8.796;2024-02-26T12:07:44;15.30;;;9.87;;
3068;SDS011;1545;51.728;8.796;2024-02-26T12:10:23;18.93;;;11.40;;
3068;SDS011;1545;51.728;8.796;2024-02-26T12:12:54;18.70;;;10.67;;
3068;SDS011;1545;51.728;8.796;2024-02-26T12:15:24;19.87;;;11.33;;
3068;SDS011;1545;51.728;8.796;2024-02-26T12:17:54;20.30;;;11.17;;
3068;SDS011;1545;51.728;8.796;2024-02-26T12:20:21;21.23;;;12.00;;
3068;SDS011;1545;51.728;8.796;2024-02-26T12:22:47;23.57;;;12.03;;
3068;SDS011;1545;51.728;8.796;2024-02-26T12:25:15;25.33;;;11.77;;
3068;SDS011;1545;51.728;8.796;2024-02-26T12:27:41;29.70;;;12.50;;
3068;SDS011;1545;51.728;8.796;2024-02-26T12:30:06;22.47;;;12.90;;
3068;SDS011;1545;51.728;8.796;2024-02-26T12:32:32;28.83;;;13.93;;
3068;SDS011;1545;51.728;8.796;2024-02-26T12:34:58;22.57;;;14.63;;
3068;SDS011;1545;51.728;8.796;2024-02-26T12:37:25;21.70;;;13.40;;
3068;SDS011;1545;51.728;8.796;2024-02-26T12:39:52;30.63;;;14.90;;
3068;SDS011;1545;51.728;8.796;2024-02-26T12:42:17;24.50;;;14.93;;
3068;SDS011;1545;51.728;8.796;2024-02-26T12:44:44;26.80;;;15.00;;
3068;SDS011;1545;51.728;8.796;2024-02-26T12:47:10;28.17;;;16.03;;
3068;SDS011;1545;51.728;8.796;2024-02-26T12:49:41;39.40;;;15.73;;
3068;SDS011;1545;51.728;8.796;2024-02-26T12:52:09;29.37;;;17.13;;
3068;SDS011;1545;51.728;8.796;2024-02-26T12:54:35;28.90;;;16.30;;
3068;SDS011;1545;51.728;8.796;2024-02-26T12:57:03;28.97;;;16.67;;
3068;SDS011;1545;51.728;8.796;2024-02-26T12:59:31;32.10;;;15.77;;
3068;SDS011;1545;51.728;8.796;2024-02-26T13:01:58;32.37;;;16.53;;
3068;SDS011;1545;51.728;8.796;2024-02-26T13:04:24;39.93;;;15.93;;
3068;SDS011;1545;51.728;8.796;2024-02-26T13:06:52;26.87;;;16.07;;
3068;SDS011;1545;51.728;8.796;2024-02-26T13:09:18;31.93;;;15.90;;
3068;SDS011;1545;51.728;8.796;2024-02-26T13:11:44;35.70;;;15.73;;
3068;SDS011;1545;51.728;8.796;2024-02-26T13:14:22;46.33;;;16.90;;
3068;SDS011;1545;51.728;8.796;2024-02-26T13:16:55;25.97;;;13.93;;
3068;SDS011;1545;51.728;8.796;2024-02-26T13:19:21;31.93;;;14.80;;
3068;SDS011;1545;51.728;8.796;2024-02-26T13:21:46;26.10;;;14.53;;
3068;SDS011;1545;51.728;8.796;2024-02-26T13:24:12;27.53;;;14.40;;
3068;SDS011;1545;51.728;8.796;2024-02-26T13:26:38;31.10;;;14.50;;
3068;SDS011;1545;51.728;8.796;2024-02-26T13:29:04;24.23;;;13.73;;
3068;SDS011;1545;51.728;8.796;2024-02-26T13:31:30;27.77;;;13.63;;
3068;SDS011;1545;51.728;8.796;2024-02-26T13:33:56;21.17;;;13.47;;
3068;SDS011;1545;51.728;8.796;2024-02-26T13:36:22;21.53;;;12.30;;
3068;SDS011;1545;51.728;8.796;2024-02-26T13:38:53;23.63;;;12.67;;
3068;SDS011;1545;51.728;8.796;2024-02-26T13:41:19;21.83;;;13.00;;
3068;SDS011;1545;51.728;8.796;2024-02-26T13:43:45;22.40;;;12.03;;
3068;SDS011;1545;51.728;8.796;2024-02-26T13:46:11;24.20;;;12.30;;
3068;SDS011;1545;51.728;8.796;2024-02-26T13:48:39;23.53;;;11.70;;
3068;SDS011;1545;51.728;8.796;2024-02-26T13:51:04;24.23;;;11.50;;
3068;SDS011;1545;51.728;8.796;2024-02-26T13:53:30;19.57;;;11.47;;
3068;SDS011;1545;51.728;8.796;2024-02-26T13:55:55;22.03;;;11.83;;
3068;SDS011;1545;51.728;8.796;2024-02-26T13:58:23;19.43;;;10.73;;
3068;SDS011;1545;51.728;8.796;2024-02-26T14:00:50;21.27;;;11.07;;
3068;SDS011;1545;51.728;8.796;2024-02-26T14:03:15;20.10;;;10.83;;
3068;SDS011;1545;51.728;8.796;2024-02-26T14:05:41;17.03;;;10.17;;
3068;SDS011;1545;51.728;8.796;2024-02-26T14:08:07;28.97;;;10.43;;
3068;SDS011;1545;51.728;8.796;2024-02-26T14:10:33;18.80;;;10.03;;
3068;SDS011;1545;51.728;8.796;2024-02-26T14:12:59;23.40;;;10.73;;
3068;SDS011;1545;51.728;8.796;2024-02-26T14:15:25;19.07;;;10.07;;
3068;SDS011;1545;51.728;8.796;2024-02-26T14:17:51;21.23;;;9.63;;
3068;SDS011;1545;51.728;8.796;2024-02-26T14:20:20;17.73;;;9.40;;
3068;SDS011;1545;51.728;8.796;2024-02-26T14:22:48;17.53;;;9.77;;
3068;SDS011;1545;51.728;8.796;2024-02-26T14:25:14;16.73;;;9.30;;
3068;SDS011;1545;51.728;8.796;2024-02-26T14:27:39;17.90;;;9.80;;
3068;SDS011;1545;51.728;8.796;2024-02-26T14:30:05;26.23;;;10.30;;
3068;SDS011;1545;51.728;8.796;2024-02-26T14:32:31;30.60;;;10.03;;
3068;SDS011;1545;51.728;8.796;2024-02-26T14:35:00;19.30;;;9.73;;
3068;SDS011;1545;51.728;8.796;2024-02-26T14:37:25;26.03;;;9.70;;
3068;SDS011;1545;51.728;8.796;2024-02-26T14:39:51;19.17;;;9.70;;
3068;SDS011;1545;51.728;8.796;2024-02-26T14:42:17;16.60;;;9.47;;
3068;SDS011;1545;51.728;8.796;2024-02-26T14:44:43;19.83;;;10.30;;
3068;SDS011;1545;51.728;8.796;2024-02-26T14:47:09;17.57;;;10.83;;
3068;SDS011;1545;51.728;8.796;2024-02-26T14:49:35;22.23;;;11.63;;
3068;SDS011;1545;51.728;8.796;2024-02-26T14:52:00;22.03;;;11.27;;
3068;SDS011;1545;51.728;8.796;2024-02-26T14:54:28;19.37;;;11.40;;
3068;SDS011;1545;51.728;8.796;2024-02-26T14:56:57;19.47;;;10.77;;
3068;SDS011;1545;51.728;8.796;2024-02-26T14:59:23;21.63;;;11.60;;
3068;SDS011;1545;51.728;8.796;2024-02-26T15:01:48;21.90;;;11.20;;